This is the latest recevied weather packets stored in our database for station/object K7SKM. If no packets are shown the sender has not sent any weather packets the latest 10 day(s).
| Time | Temp. | Humidity | Pressure | Rain* | Wind** | Luminosity | Snow |
|---|---|---|---|---|---|---|---|
| 1778022520 | 18.33° C | 61% | 1020.4 hPa | 0 mm | - | 393 W/m² | - |
| 1778022216 | 19.44° C | 60% | 1020.3 hPa | 0 mm | - | 276 W/m² | - |
| 1778021913 | 18.33° C | 61% | 1020.4 hPa | 0 mm | - | 411 W/m² | - |
| 1778021611 | 18.89° C | 61% | 1020.5 hPa | 0 mm | - | 214 W/m² | - |
| 1778021305 | 18.33° C | 62% | 1020.6 hPa | 0 mm | - | 375 W/m² | - |
| 1778021004 | 18.89° C | 63% | 1020.7 hPa | 0 mm | - | 226 W/m² | - |
| 1778020700 | 18.89° C | 60% | 1020.5 hPa | 0 mm | - | 244 W/m² | - |
| 1778020398 | 19.44° C | 60% | 1020.7 hPa | 0 mm | - | 210 W/m² | - |
| 1778020093 | 18.89° C | 61% | 1020.8 hPa | 0 mm | - | 195 W/m² | - |
| 1778019790 | 18.89° C | 61% | 1020.6 hPa | 0 mm | - | 225 W/m² | - |
| 1778019487 | 18.33° C | 62% | 1020.8 hPa | 0 mm | - | 210 W/m² | - |
| 1778019183 | 17.78° C | 63% | 1020.9 hPa | 0 mm | - | 186 W/m² | - |
| 1778018880 | 17.78° C | 63% | 1020.8 hPa | 0 mm | - | 158 W/m² | - |
| 1778018577 | 17.22° C | 64% | 1021.1 hPa | 0 mm | - | 180 W/m² | - |
| 1778018276 | 18.33° C | 62% | 1021 hPa | 0 mm | - | 187 W/m² | - |
| 1778017973 | 17.78° C | 64% | 1021 hPa | 0 mm | - | 167 W/m² | - |
| 1778017671 | 17.78° C | 64% | 1020.9 hPa | 0 mm | - | 141 W/m² | - |
| 1778017368 | 17.78° C | 63% | 1021 hPa | 0 mm | - | 142 W/m² | - |
| 1778017065 | 17.22° C | 64% | 1020.9 hPa | 0 mm | - | 141 W/m² | - |
| 1778016763 | 17.78° C | 64% | 1021.1 hPa | 0 mm | - | 146 W/m² | - |
| 1778016458 | 17.22° C | 64% | 1021 hPa | 0 mm | - | 146 W/m² | - |
| 1778016156 | 17.22° C | 63% | 1020.9 hPa | 0 mm | - | 142 W/m² | - |
| 1778015852 | 17.78° C | 62% | 1021.1 hPa | 0 mm | - | 134 W/m² | - |
| 1778015550 | 17.22° C | 62% | 1021 hPa | 0 mm | - | 135 W/m² | - |
| 1778015246 | 16.67° C | 64% | 1020.9 hPa | 0 mm | - | 141 W/m² | - |
* Rain latest hour (hover to see other rain measurements)
** Current wind speed in m/s (hover to see current wind gust speed)